createdAt,value
2017-08-09T00:02:21.037Z,17.14
2017-08-09T00:04:47.591Z,17.17
2017-08-09T00:07:13.985Z,17.40
2017-08-09T00:09:40.897Z,17.32
2017-08-09T00:12:07.814Z,17.31
2017-08-09T00:14:34.865Z,17.41
2017-08-09T00:17:01.869Z,17.42
2017-08-09T00:19:28.344Z,17.44
2017-08-09T00:21:55.125Z,17.50
2017-08-09T00:24:21.534Z,17.36
2017-08-09T00:26:47.868Z,17.32
2017-08-09T00:29:14.203Z,17.36
2017-08-09T00:31:40.774Z,17.24
2017-08-09T00:34:07.162Z,17.19
2017-08-09T00:36:33.589Z,17.33
2017-08-09T00:38:59.957Z,17.45
2017-08-09T00:41:26.303Z,17.52
2017-08-09T00:43:52.901Z,17.49
2017-08-09T00:46:19.300Z,17.39
2017-08-09T00:48:45.698Z,17.28
2017-08-09T00:51:12.059Z,17.36
2017-08-09T00:53:38.411Z,17.38
2017-08-09T00:56:04.771Z,17.48
2017-08-09T00:58:31.572Z,17.53
2017-08-09T01:00:57.956Z,17.49
2017-08-09T01:03:24.866Z,17.38
2017-08-09T01:05:51.234Z,17.46
2017-08-09T01:08:17.595Z,17.39
2017-08-09T01:10:44.104Z,17.37
2017-08-09T01:13:10.540Z,17.32
2017-08-09T01:15:36.925Z,17.35
2017-08-09T01:18:03.298Z,17.37
2017-08-09T01:20:29.663Z,17.26
2017-08-09T01:22:56.092Z,17.01
2017-08-09T01:25:22.427Z,16.92
2017-08-09T01:27:48.802Z,16.85
2017-08-09T01:30:15.283Z,16.88
2017-08-09T01:32:42.332Z,16.87
2017-08-09T01:35:09.223Z,16.97
2017-08-09T01:37:35.726Z,17.09
2017-08-09T01:40:02.154Z,17.14
2017-08-09T01:42:28.646Z,17.00
2017-08-09T01:44:55.077Z,16.85
2017-08-09T01:47:21.461Z,16.92
2017-08-09T01:49:48.082Z,16.75
2017-08-09T01:52:14.687Z,16.83
2017-08-09T01:54:41.241Z,16.78
2017-08-09T01:57:07.798Z,16.74
2017-08-09T01:59:34.571Z,16.94
2017-08-09T02:02:01.217Z,16.85
2017-08-09T02:04:27.915Z,17.05
2017-08-09T02:06:54.716Z,16.93
2017-08-09T02:09:21.289Z,17.04
2017-08-09T02:11:48.276Z,17.07
2017-08-09T02:14:15.118Z,17.07
2017-08-09T02:16:41.921Z,16.82
2017-08-09T02:19:08.544Z,16.68
2017-08-09T02:21:35.073Z,16.53
2017-08-09T02:24:01.471Z,16.47
2017-08-09T02:26:28.052Z,16.57
2017-08-09T02:28:54.727Z,16.62
2017-08-09T02:31:21.600Z,16.55
2017-08-09T02:33:48.275Z,16.62
2017-08-09T02:36:14.846Z,16.55
2017-08-09T02:38:41.505Z,16.54
2017-08-09T02:41:08.116Z,16.65
2017-08-09T02:43:35.028Z,16.62
2017-08-09T02:46:01.710Z,16.58
2017-08-09T02:48:28.340Z,16.79
2017-08-09T02:50:55.234Z,16.68
2017-08-09T02:53:21.578Z,16.65
2017-08-09T02:55:47.910Z,16.74
2017-08-09T02:58:14.256Z,16.91
2017-08-09T03:00:40.635Z,16.84
2017-08-09T03:03:07.043Z,16.77
2017-08-09T03:05:33.923Z,16.86
2017-08-09T03:08:00.276Z,16.92
2017-08-09T03:10:26.628Z,17.09
2017-08-09T03:12:53.009Z,17.05
2017-08-09T03:15:19.440Z,17.06
2017-08-09T03:17:45.823Z,17.11
2017-08-09T03:20:12.181Z,17.09
2017-08-09T03:22:38.578Z,17.14
2017-08-09T03:25:04.936Z,17.16
2017-08-09T03:27:31.320Z,17.27
2017-08-09T03:29:57.713Z,17.34
2017-08-09T03:32:24.087Z,17.40
2017-08-09T03:34:50.449Z,17.32
2017-08-09T03:37:16.845Z,17.38
2017-08-09T03:39:43.228Z,17.42
2017-08-09T03:42:09.631Z,17.38
2017-08-09T03:44:36.007Z,17.42
2017-08-09T03:47:02.442Z,17.43
2017-08-09T03:49:28.859Z,17.32
2017-08-09T03:51:55.274Z,17.25
2017-08-09T03:54:21.674Z,17.39
2017-08-09T03:56:48.045Z,17.34
2017-08-09T03:59:14.418Z,17.34
2017-08-09T04:01:40.781Z,17.37
2017-08-09T04:04:07.126Z,17.30
2017-08-09T04:06:33.513Z,17.42
2017-08-09T04:08:59.880Z,17.38
2017-08-09T04:11:26.252Z,17.36
2017-08-09T04:13:52.648Z,17.38
2017-08-09T04:16:19.052Z,17.35
2017-08-09T04:18:45.470Z,17.24
2017-08-09T04:21:11.864Z,17.20
2017-08-09T04:23:38.239Z,17.22
2017-08-09T04:26:04.670Z,17.35
2017-08-09T04:28:31.026Z,17.30
2017-08-09T04:30:57.401Z,17.32
2017-08-09T04:33:23.754Z,17.20
2017-08-09T04:35:50.129Z,17.25
2017-08-09T04:38:16.513Z,17.21
2017-08-09T04:40:42.896Z,17.19
2017-08-09T04:43:09.263Z,17.13
2017-08-09T04:45:35.607Z,17.08
2017-08-09T04:48:02.156Z,17.10
2017-08-09T04:50:28.507Z,17.07
2017-08-09T04:52:54.860Z,17.05
2017-08-09T04:55:21.249Z,17.11
2017-08-09T04:57:47.634Z,17.14
2017-08-09T05:00:14.018Z,17.12
2017-08-09T05:02:40.396Z,17.09
2017-08-09T05:05:06.804Z,17.17
2017-08-09T05:07:33.225Z,17.16
2017-08-09T05:09:59.616Z,17.11
2017-08-09T05:12:26.007Z,17.27
2017-08-09T05:14:52.373Z,17.13
2017-08-09T05:17:18.734Z,17.05
2017-08-09T05:19:45.097Z,17.11
2017-08-09T05:22:11.424Z,17.15
2017-08-09T05:24:37.812Z,17.18
2017-08-09T05:27:04.188Z,17.09
2017-08-09T05:29:31.502Z,17.16
2017-08-09T05:31:57.865Z,17.12
2017-08-09T05:34:24.621Z,17.00
2017-08-09T05:36:51.001Z,16.96
2017-08-09T05:39:17.394Z,17.06
2017-08-09T05:41:43.779Z,17.10
2017-08-09T05:44:10.157Z,17.05
2017-08-09T05:46:36.544Z,17.07
2017-08-09T05:49:02.914Z,17.05
2017-08-09T05:51:29.276Z,17.12
2017-08-09T05:53:55.650Z,17.22
2017-08-09T05:56:22.007Z,17.10
2017-08-09T05:58:48.377Z,17.04
2017-08-09T06:01:14.758Z,17.10
2017-08-09T06:03:41.165Z,17.11
2017-08-09T06:06:07.534Z,17.05
2017-08-09T06:08:33.923Z,17.12
2017-08-09T06:11:00.298Z,17.17
2017-08-09T06:13:26.644Z,17.17
2017-08-09T06:15:53.025Z,17.08
2017-08-09T06:18:19.441Z,17.15
2017-08-09T06:20:45.797Z,17.14
2017-08-09T06:23:12.176Z,17.07
2017-08-09T06:25:38.579Z,17.12
2017-08-09T06:28:04.983Z,17.05
2017-08-09T06:30:31.348Z,17.23
2017-08-09T06:32:57.747Z,17.16
2017-08-09T06:35:24.172Z,17.11
2017-08-09T06:37:50.537Z,17.15
2017-08-09T06:40:16.912Z,17.06
2017-08-09T06:42:43.283Z,17.09
2017-08-09T06:45:09.646Z,17.13
2017-08-09T06:47:36.026Z,17.21
2017-08-09T06:50:02.445Z,17.20
2017-08-09T06:52:28.815Z,17.31
2017-08-09T06:54:55.207Z,17.29
2017-08-09T06:57:21.593Z,17.32
2017-08-09T06:59:47.955Z,17.39
2017-08-09T07:02:14.323Z,17.37
2017-08-09T07:04:40.707Z,17.35
2017-08-09T07:07:07.111Z,17.40
2017-08-09T07:09:33.490Z,17.33
2017-08-09T07:11:59.864Z,17.32
2017-08-09T07:14:26.251Z,17.26
2017-08-09T07:16:52.617Z,17.50
2017-08-09T07:19:19.002Z,17.63
2017-08-09T07:21:45.396Z,17.65
2017-08-09T07:24:11.786Z,17.56
2017-08-09T07:26:38.170Z,17.60
2017-08-09T07:29:04.535Z,17.79
2017-08-09T07:31:30.931Z,17.72
2017-08-09T07:33:57.322Z,17.65
2017-08-09T07:36:23.722Z,17.75
2017-08-09T07:38:50.078Z,17.76
2017-08-09T07:41:16.423Z,17.71
2017-08-09T07:43:42.832Z,17.82
2017-08-09T07:46:09.198Z,17.79
2017-08-09T07:48:35.586Z,17.90
2017-08-09T07:51:02.447Z,18.02
2017-08-09T07:53:28.836Z,18.07
2017-08-09T07:55:55.763Z,18.26
2017-08-09T07:58:22.120Z,18.23
2017-08-09T08:00:48.515Z,18.29
2017-08-09T08:03:14.899Z,18.28
2017-08-09T08:05:41.269Z,18.18
2017-08-09T08:08:07.662Z,18.22
2017-08-09T08:10:34.051Z,18.13
2017-08-09T08:13:00.420Z,18.11
2017-08-09T08:15:26.800Z,18.09
2017-08-09T08:17:53.166Z,18.20
2017-08-09T08:20:19.545Z,18.26
2017-08-09T08:22:45.960Z,18.28
2017-08-09T08:25:12.298Z,18.28
2017-08-09T08:27:38.650Z,18.29
2017-08-09T08:30:05.036Z,18.32
2017-08-09T08:32:31.509Z,18.43
2017-08-09T08:34:57.872Z,18.39
2017-08-09T08:37:24.270Z,18.49
2017-08-09T08:39:50.669Z,18.57
2017-08-09T08:42:17.038Z,18.62
2017-08-09T08:44:43.425Z,18.67
2017-08-09T08:47:09.809Z,18.80
2017-08-09T08:49:36.220Z,18.89
2017-08-09T08:52:02.600Z,18.97
2017-08-09T08:54:29.012Z,19.20
2017-08-09T08:56:55.421Z,19.37
2017-08-09T08:59:21.794Z,19.59
2017-08-09T09:01:48.173Z,19.60
2017-08-09T09:04:14.573Z,19.76
2017-08-09T09:06:40.953Z,19.82
2017-08-09T09:09:07.315Z,19.72
2017-08-09T09:11:33.711Z,19.69
2017-08-09T09:14:00.108Z,19.71
2017-08-09T09:16:26.488Z,19.68
2017-08-09T09:18:52.866Z,19.70
2017-08-09T09:21:19.219Z,19.81
2017-08-09T09:23:45.667Z,19.87
2017-08-09T09:26:12.094Z,20.21
2017-08-09T09:28:38.468Z,20.31
2017-08-09T09:31:04.871Z,20.32
2017-08-09T09:33:31.249Z,20.43
2017-08-09T09:35:57.625Z,20.46
2017-08-09T09:38:24.033Z,20.90
2017-08-09T09:40:50.461Z,21.00
2017-08-09T09:43:16.841Z,21.06
2017-08-09T09:45:43.242Z,20.81
2017-08-09T09:48:09.646Z,20.80
2017-08-09T09:50:36.070Z,20.82
2017-08-09T09:53:02.455Z,20.74
2017-08-09T09:55:28.842Z,20.78
2017-08-09T09:57:55.234Z,20.57
2017-08-09T10:00:21.608Z,20.50
2017-08-09T10:02:47.971Z,20.56
2017-08-09T10:05:14.353Z,20.76
2017-08-09T10:07:41.110Z,20.68
2017-08-09T10:10:07.497Z,20.88
2017-08-09T10:12:33.858Z,20.78
2017-08-09T10:15:00.241Z,20.76
2017-08-09T10:17:26.618Z,21.02
2017-08-09T10:19:52.983Z,21.08
2017-08-09T10:22:19.363Z,21.13
2017-08-09T10:24:45.749Z,21.21
2017-08-09T10:27:12.121Z,21.54
2017-08-09T10:29:38.512Z,21.42
2017-08-09T10:32:04.893Z,21.31
2017-08-09T10:34:31.285Z,21.35
2017-08-09T10:36:58.528Z,21.60
2017-08-09T10:39:24.921Z,21.95
2017-08-09T10:41:51.308Z,21.90
2017-08-09T10:44:18.053Z,21.70
2017-08-09T10:46:44.461Z,21.65
2017-08-09T10:49:10.849Z,21.75
2017-08-09T10:51:37.285Z,22.05
2017-08-09T10:54:03.667Z,22.17
2017-08-09T10:56:30.043Z,22.20
2017-08-09T10:58:56.425Z,22.36
2017-08-09T11:01:22.832Z,22.54
2017-08-09T11:03:49.284Z,22.60
2017-08-09T11:06:15.692Z,22.69
2017-08-09T11:08:42.100Z,22.54
2017-08-09T11:11:09.019Z,22.64
2017-08-09T11:13:35.403Z,22.69
2017-08-09T11:16:01.784Z,22.56
2017-08-09T11:18:28.186Z,22.71
2017-08-09T11:20:54.622Z,22.93
2017-08-09T11:23:20.995Z,23.00
2017-08-09T11:25:47.411Z,22.95
2017-08-09T11:28:13.787Z,23.14
2017-08-09T11:30:40.163Z,23.15
2017-08-09T11:33:06.545Z,23.45
2017-08-09T11:35:32.952Z,23.53
2017-08-09T11:37:59.318Z,23.70
2017-08-09T11:40:25.708Z,23.82
2017-08-09T11:42:52.122Z,23.47
2017-08-09T11:45:18.494Z,23.63
2017-08-09T11:47:44.867Z,23.45
2017-08-09T11:50:11.268Z,23.87
2017-08-09T11:52:37.708Z,24.10
2017-08-09T11:55:04.077Z,23.93
2017-08-09T11:57:30.476Z,24.28
2017-08-09T11:59:56.875Z,24.21
2017-08-09T12:02:24.709Z,23.81
2017-08-09T12:04:51.104Z,24.35
2017-08-09T12:07:17.792Z,24.19
2017-08-09T12:09:45.817Z,23.79
2017-08-09T12:12:12.191Z,23.95
2017-08-09T12:14:38.703Z,23.95
2017-08-09T12:17:05.095Z,23.62
2017-08-09T12:19:31.508Z,23.50
2017-08-09T12:21:57.940Z,23.74
2017-08-09T12:24:24.310Z,23.80
2017-08-09T12:26:50.690Z,23.50
2017-08-09T12:29:17.047Z,23.59
2017-08-09T12:31:43.428Z,23.62
2017-08-09T12:34:09.972Z,23.98
2017-08-09T12:36:36.367Z,24.01
2017-08-09T12:39:02.899Z,24.29
2017-08-09T12:41:29.269Z,24.41
2017-08-09T12:43:55.646Z,24.74
2017-08-09T12:46:22.020Z,24.38
2017-08-09T12:48:48.445Z,24.23
2017-08-09T12:51:14.850Z,24.37
2017-08-09T12:53:41.241Z,24.25
2017-08-09T12:56:07.605Z,24.13
2017-08-09T12:58:33.987Z,24.36
2017-08-09T13:01:00.393Z,24.39
2017-08-09T13:03:26.794Z,24.51
2017-08-09T13:05:53.207Z,24.99
2017-08-09T13:08:19.606Z,24.76
2017-08-09T13:10:46.001Z,24.66
2017-08-09T13:13:12.376Z,25.08
2017-08-09T13:15:38.819Z,25.04
2017-08-09T13:18:05.219Z,25.05
2017-08-09T13:20:31.621Z,25.04
2017-08-09T13:22:58.017Z,24.93
2017-08-09T13:25:24.424Z,24.81
2017-08-09T13:27:50.844Z,24.83
2017-08-09T13:30:17.234Z,24.73
2017-08-09T13:32:43.653Z,24.55
2017-08-09T13:35:10.063Z,23.37
2017-08-09T13:37:36.436Z,23.58
2017-08-09T13:40:02.806Z,24.27
2017-08-09T13:42:29.220Z,24.23
2017-08-09T13:44:55.587Z,24.67
2017-08-09T13:47:22.024Z,24.57
2017-08-09T13:49:48.397Z,25.19
2017-08-09T13:52:14.766Z,24.24
2017-08-09T13:54:41.125Z,24.97
2017-08-09T13:57:07.580Z,25.53
2017-08-09T13:59:33.983Z,25.70
2017-08-09T14:02:00.352Z,25.53
2017-08-09T14:04:26.774Z,25.89
2017-08-09T14:06:53.149Z,26.04
2017-08-09T14:09:19.574Z,24.89
2017-08-09T14:11:45.993Z,24.26
2017-08-09T14:14:12.384Z,23.91
2017-08-09T14:16:38.750Z,23.82
2017-08-09T14:19:05.132Z,24.95
2017-08-09T14:21:31.506Z,24.98
2017-08-09T14:23:57.877Z,25.89
2017-08-09T14:26:24.736Z,25.99
2017-08-09T14:28:51.094Z,26.02
2017-08-09T14:31:17.455Z,25.16
2017-08-09T14:33:43.844Z,25.10
2017-08-09T14:36:10.225Z,24.97
2017-08-09T14:38:36.607Z,24.29
2017-08-09T14:41:02.971Z,25.53
2017-08-09T14:43:29.351Z,25.44
2017-08-09T14:45:55.787Z,25.17
2017-08-09T14:48:22.169Z,25.59
2017-08-09T14:50:48.555Z,25.75
2017-08-09T14:53:14.975Z,25.24
2017-08-09T14:55:41.388Z,25.38
2017-08-09T14:58:07.776Z,24.77
2017-08-09T15:00:34.146Z,24.97
2017-08-09T15:03:00.568Z,24.89
2017-08-09T15:05:26.994Z,24.78
2017-08-09T15:07:53.395Z,24.27
2017-08-09T15:10:19.789Z,24.43
2017-08-09T15:12:46.205Z,24.20
2017-08-09T15:15:12.586Z,24.28
2017-08-09T15:17:38.979Z,24.25
2017-08-09T15:20:05.341Z,24.66
2017-08-09T15:22:31.756Z,24.99
2017-08-09T15:24:58.114Z,24.63
2017-08-09T15:27:24.482Z,24.69
2017-08-09T15:29:50.870Z,24.95
2017-08-09T15:32:17.243Z,24.64
2017-08-09T15:34:43.633Z,24.22
2017-08-09T15:37:10.077Z,23.97
2017-08-09T15:39:36.479Z,24.11
2017-08-09T15:42:02.916Z,24.41
2017-08-09T15:44:29.304Z,23.94
2017-08-09T15:46:55.684Z,23.55
2017-08-09T15:49:22.073Z,24.13
2017-08-09T15:51:48.490Z,24.45
2017-08-09T15:54:14.876Z,23.77
2017-08-09T15:56:41.281Z,23.51
2017-08-09T15:59:07.674Z,23.65
2017-08-09T16:01:34.063Z,23.70
2017-08-09T16:04:00.478Z,23.62
2017-08-09T16:06:26.866Z,24.18
2017-08-09T16:08:53.263Z,24.44
2017-08-09T16:11:19.643Z,25.04
2017-08-09T16:13:46.037Z,24.60
2017-08-09T16:16:12.654Z,24.13
2017-08-09T16:18:39.041Z,24.28
2017-08-09T16:21:05.443Z,24.21
2017-08-09T16:23:31.808Z,24.20
2017-08-09T16:25:58.194Z,25.13
2017-08-09T16:28:24.592Z,25.46
2017-08-09T16:30:50.992Z,25.34
2017-08-09T16:33:17.452Z,25.01
2017-08-09T16:35:43.858Z,24.92
2017-08-09T16:38:10.258Z,24.67
2017-08-09T16:40:36.877Z,24.88
2017-08-09T16:43:03.792Z,25.30
2017-08-09T16:45:30.389Z,24.96
2017-08-09T16:47:57.027Z,24.52
2017-08-09T16:50:23.417Z,24.19
2017-08-09T16:52:49.781Z,24.18
2017-08-09T16:55:16.149Z,24.08
2017-08-09T16:57:42.840Z,23.90
2017-08-09T17:00:09.240Z,24.21
2017-08-09T17:02:35.586Z,24.30
2017-08-09T17:05:02.067Z,24.21
2017-08-09T17:07:28.464Z,24.02
2017-08-09T17:09:54.875Z,23.86
2017-08-09T17:12:21.247Z,23.93
2017-08-09T17:14:47.635Z,23.76
2017-08-09T17:17:14.496Z,23.77
2017-08-09T17:19:40.942Z,23.69
2017-08-09T17:22:07.298Z,23.70
2017-08-09T17:24:33.647Z,23.91
2017-08-09T17:27:00.312Z,24.07
2017-08-09T17:29:26.705Z,23.85
2017-08-09T17:31:53.079Z,23.49
2017-08-09T17:34:19.476Z,23.60
2017-08-09T17:36:45.891Z,23.83
2017-08-09T17:39:12.273Z,23.94
2017-08-09T17:41:38.715Z,23.92
2017-08-09T17:44:05.078Z,23.86
2017-08-09T17:46:31.445Z,23.79
2017-08-09T17:48:57.855Z,23.69
2017-08-09T17:51:24.210Z,23.64
2017-08-09T17:53:50.889Z,23.58
2017-08-09T17:56:17.239Z,23.52
2017-08-09T17:58:43.625Z,23.48
2017-08-09T18:01:10.208Z,23.47
2017-08-09T18:03:36.778Z,23.51
2017-08-09T18:06:03.197Z,23.53
2017-08-09T18:08:29.655Z,23.41
2017-08-09T18:10:56.080Z,23.33
2017-08-09T18:13:22.485Z,23.25
2017-08-09T18:15:48.871Z,23.22
2017-08-09T18:18:15.231Z,23.19
2017-08-09T18:20:41.654Z,23.09
2017-08-09T18:23:08.064Z,23.08
2017-08-09T18:25:34.422Z,23.02
2017-08-09T18:28:00.840Z,22.98
2017-08-09T18:30:27.435Z,22.91
2017-08-09T18:32:54.255Z,22.87
2017-08-09T18:35:20.676Z,22.83
2017-08-09T18:37:47.213Z,22.77
2017-08-09T18:40:13.645Z,22.72
2017-08-09T18:42:40.287Z,22.67
2017-08-09T18:45:06.950Z,22.63
2017-08-09T18:47:33.581Z,22.59
2017-08-09T18:50:00.223Z,22.56
2017-08-09T18:52:27.042Z,22.55
2017-08-09T18:54:53.450Z,22.46
2017-08-09T18:57:19.858Z,22.40
2017-08-09T18:59:46.278Z,22.38
2017-08-09T19:02:12.684Z,22.20
2017-08-09T19:04:39.084Z,22.26
2017-08-09T19:07:05.451Z,22.16
2017-08-09T19:09:31.855Z,22.14
2017-08-09T19:11:58.264Z,22.14
2017-08-09T19:14:24.685Z,22.05
2017-08-09T19:16:51.097Z,22.09
2017-08-09T19:19:18.627Z,22.13
2017-08-09T19:21:45.083Z,22.11
2017-08-09T19:24:11.493Z,22.18
2017-08-09T19:26:37.880Z,22.21
2017-08-09T19:29:04.317Z,22.21
2017-08-09T19:31:30.888Z,22.14
2017-08-09T19:33:57.269Z,22.12
2017-08-09T19:36:23.647Z,22.13
2017-08-09T19:38:50.014Z,22.03
2017-08-09T19:41:16.438Z,21.63
2017-08-09T19:43:42.835Z,21.50
2017-08-09T19:46:09.429Z,21.39
2017-08-09T19:48:35.850Z,21.52
2017-08-09T19:51:02.243Z,21.52
2017-08-09T19:53:28.646Z,21.44
2017-08-09T19:55:55.061Z,21.53
2017-08-09T19:58:21.519Z,21.44
2017-08-09T20:00:47.888Z,21.37
2017-08-09T20:03:14.581Z,21.40
2017-08-09T20:05:41.021Z,21.51
2017-08-09T20:08:07.437Z,21.56
2017-08-09T20:10:33.820Z,21.51
2017-08-09T20:13:00.162Z,21.49
2017-08-09T20:15:26.520Z,21.43
2017-08-09T20:17:53.381Z,21.42
2017-08-09T20:20:19.837Z,21.53
2017-08-09T20:22:46.222Z,21.28
2017-08-09T20:25:12.609Z,21.02
2017-08-09T20:27:39.025Z,20.70
2017-08-09T20:30:05.525Z,20.88
2017-08-09T20:32:31.916Z,21.05
2017-08-09T20:34:58.440Z,20.88
2017-08-09T20:37:24.798Z,21.12
2017-08-09T20:39:51.201Z,21.15
2017-08-09T20:42:17.747Z,21.03
2017-08-09T20:44:44.104Z,20.92
2017-08-09T20:47:10.488Z,20.92
2017-08-09T20:49:36.842Z,20.99
2017-08-09T20:52:03.225Z,21.02
2017-08-09T20:54:29.636Z,20.83
2017-08-09T20:56:56.258Z,20.85
2017-08-09T20:59:22.627Z,20.81
2017-08-09T21:01:50.018Z,20.31
2017-08-09T21:04:16.392Z,20.20
2017-08-09T21:06:42.743Z,20.00
2017-08-09T21:09:09.110Z,20.03
2017-08-09T21:11:35.502Z,20.14
2017-08-09T21:14:01.848Z,20.34
2017-08-09T21:16:28.221Z,20.59
2017-08-09T21:18:54.622Z,20.62
2017-08-09T21:21:20.977Z,20.51
2017-08-09T21:23:47.349Z,20.50
2017-08-09T21:26:13.713Z,20.61
2017-08-09T21:28:40.084Z,20.58
2017-08-09T21:31:06.463Z,20.52
2017-08-09T21:33:32.908Z,20.63
2017-08-09T21:35:59.263Z,20.45
2017-08-09T21:38:25.628Z,20.27
2017-08-09T21:40:52.320Z,20.02
2017-08-09T21:43:18.726Z,19.77
2017-08-09T21:45:45.125Z,19.81
2017-08-09T21:48:11.471Z,20.02
2017-08-09T21:50:37.823Z,20.35
2017-08-09T21:53:04.189Z,20.27
2017-08-09T21:55:30.576Z,20.18
2017-08-09T21:57:56.944Z,20.10
2017-08-09T22:00:23.297Z,20.26
2017-08-09T22:02:53.281Z,20.34
2017-08-09T22:05:22.361Z,20.17
2017-08-09T22:07:48.917Z,19.99
2017-08-09T22:10:15.276Z,20.10
2017-08-09T22:12:41.639Z,20.31
2017-08-09T22:15:08.005Z,19.86
2017-08-09T22:17:34.390Z,19.59
2017-08-09T22:20:00.756Z,19.41
2017-08-09T22:22:27.102Z,19.31
2017-08-09T22:24:53.439Z,19.60
2017-08-09T22:27:19.831Z,19.84
2017-08-09T22:29:46.208Z,19.99
2017-08-09T22:32:12.546Z,19.74
2017-08-09T22:34:38.923Z,19.88
2017-08-09T22:37:05.261Z,19.83
2017-08-09T22:39:31.601Z,19.73
2017-08-09T22:41:57.984Z,19.98
2017-08-09T22:44:24.345Z,19.95
2017-08-09T22:46:50.715Z,20.01
2017-08-09T22:49:17.090Z,19.44
2017-08-09T22:51:43.429Z,19.06
2017-08-09T22:54:09.802Z,19.17
2017-08-09T22:56:36.169Z,19.53
2017-08-09T22:59:02.529Z,19.63
2017-08-09T23:01:28.889Z,19.62
2017-08-09T23:03:55.246Z,19.63
2017-08-09T23:06:21.600Z,19.81
2017-08-09T23:08:47.980Z,19.90
2017-08-09T23:11:14.417Z,19.57
2017-08-09T23:13:40.764Z,19.41
2017-08-09T23:16:07.135Z,19.10
2017-08-09T23:18:33.524Z,19.03
2017-08-09T23:20:59.887Z,18.92
2017-08-09T23:23:26.298Z,19.10
2017-08-09T23:25:52.640Z,19.34
2017-08-09T23:28:18.993Z,19.51
2017-08-09T23:30:45.373Z,19.65
2017-08-09T23:33:11.722Z,19.61
2017-08-09T23:35:38.077Z,19.52
2017-08-09T23:38:04.441Z,19.51
2017-08-09T23:40:30.771Z,19.67
2017-08-09T23:42:57.140Z,19.81
2017-08-09T23:45:23.523Z,19.87
2017-08-09T23:47:49.915Z,19.60
2017-08-09T23:50:16.270Z,19.40
2017-08-09T23:52:42.634Z,19.21
2017-08-09T23:55:08.997Z,19.24
2017-08-09T23:57:35.374Z,19.53
